sensor_id;sensor_type;location;lat;lon;timestamp;P1;durP1;ratioP1;P2;durP2;ratioP2
13218;SDS011;6674;49.152;11.918;2022-11-20T00:01:14;12.93;;;11.03;;
13218;SDS011;6674;49.152;11.918;2022-11-20T00:03:43;12.63;;;10.73;;
13218;SDS011;6674;49.152;11.918;2022-11-20T00:06:11;12.83;;;11.43;;
13218;SDS011;6674;49.152;11.918;2022-11-20T00:08:38;14.80;;;12.00;;
13218;SDS011;6674;49.152;11.918;2022-11-20T00:11:06;14.03;;;12.30;;
13218;SDS011;6674;49.152;11.918;2022-11-20T00:13:33;15.13;;;12.07;;
13218;SDS011;6674;49.152;11.918;2022-11-20T00:16:00;13.30;;;11.53;;
13218;SDS011;6674;49.152;11.918;2022-11-20T00:18:28;14.60;;;11.90;;
13218;SDS011;6674;49.152;11.918;2022-11-20T00:21:01;15.77;;;13.20;;
13218;SDS011;6674;49.152;11.918;2022-11-20T00:23:28;15.47;;;12.70;;
13218;SDS011;6674;49.152;11.918;2022-11-20T00:25:54;15.03;;;12.07;;
13218;SDS011;6674;49.152;11.918;2022-11-20T00:28:21;13.60;;;12.10;;
13218;SDS011;6674;49.152;11.918;2022-11-20T00:30:48;12.57;;;11.00;;
13218;SDS011;6674;49.152;11.918;2022-11-20T00:33:14;16.63;;;13.50;;
13218;SDS011;6674;49.152;11.918;2022-11-20T00:35:41;15.13;;;12.57;;
13218;SDS011;6674;49.152;11.918;2022-11-20T00:38:09;16.53;;;14.13;;
13218;SDS011;6674;49.152;11.918;2022-11-20T00:40:36;15.83;;;13.00;;
13218;SDS011;6674;49.152;11.918;2022-11-20T00:43:02;14.30;;;12.53;;
13218;SDS011;6674;49.152;11.918;2022-11-20T00:45:29;13.23;;;11.33;;
13218;SDS011;6674;49.152;11.918;2022-11-20T00:47:56;13.77;;;11.23;;
13218;SDS011;6674;49.152;11.918;2022-11-20T00:50:22;14.23;;;12.73;;
13218;SDS011;6674;49.152;11.918;2022-11-20T00:52:49;13.93;;;12.03;;
13218;SDS011;6674;49.152;11.918;2022-11-20T00:55:17;14.63;;;12.83;;
13218;SDS011;6674;49.152;11.918;2022-11-20T00:57:44;13.33;;;11.73;;
13218;SDS011;6674;49.152;11.918;2022-11-20T01:00:11;13.80;;;11.40;;
13218;SDS011;6674;49.152;11.918;2022-11-20T01:02:38;13.00;;;11.50;;
13218;SDS011;6674;49.152;11.918;2022-11-20T01:05:07;14.47;;;12.10;;
13218;SDS011;6674;49.152;11.918;2022-11-20T01:07:34;15.77;;;12.73;;
13218;SDS011;6674;49.152;11.918;2022-11-20T01:10:00;14.20;;;12.10;;
13218;SDS011;6674;49.152;11.918;2022-11-20T01:12:28;17.37;;;14.30;;
13218;SDS011;6674;49.152;11.918;2022-11-20T01:14:55;16.87;;;13.97;;
13218;SDS011;6674;49.152;11.918;2022-11-20T01:17:21;16.93;;;13.53;;
13218;SDS011;6674;49.152;11.918;2022-11-20T01:19:49;17.50;;;14.23;;
13218;SDS011;6674;49.152;11.918;2022-11-20T01:22:16;14.70;;;12.23;;
13218;SDS011;6674;49.152;11.918;2022-11-20T01:24:42;13.60;;;11.20;;
13218;SDS011;6674;49.152;11.918;2022-11-20T01:27:09;14.33;;;11.60;;
13218;SDS011;6674;49.152;11.918;2022-11-20T01:29:37;15.30;;;12.50;;
13218;SDS011;6674;49.152;11.918;2022-11-20T01:32:04;15.17;;;12.73;;
13218;SDS011;6674;49.152;11.918;2022-11-20T01:34:31;15.53;;;12.33;;
13218;SDS011;6674;49.152;11.918;2022-11-20T01:36:57;16.50;;;12.70;;
13218;SDS011;6674;49.152;11.918;2022-11-20T01:39:25;17.30;;;13.07;;
13218;SDS011;6674;49.152;11.918;2022-11-20T01:41:53;18.30;;;14.37;;
13218;SDS011;6674;49.152;11.918;2022-11-20T01:44:50;18.10;;;14.20;;
13218;SDS011;6674;49.152;11.918;2022-11-20T01:47:20;15.50;;;12.63;;
13218;SDS011;6674;49.152;11.918;2022-11-20T01:49:52;14.37;;;11.87;;
13218;SDS011;6674;49.152;11.918;2022-11-20T01:52:23;15.77;;;12.33;;
13218;SDS011;6674;49.152;11.918;2022-11-20T01:54:52;13.00;;;11.40;;
13218;SDS011;6674;49.152;11.918;2022-11-20T01:57:22;14.23;;;11.93;;
13218;SDS011;6674;49.152;11.918;2022-11-20T01:59:53;15.57;;;13.17;;
13218;SDS011;6674;49.152;11.918;2022-11-20T02:02:23;15.23;;;12.33;;
13218;SDS011;6674;49.152;11.918;2022-11-20T02:04:50;11.90;;;10.17;;
13218;SDS011;6674;49.152;11.918;2022-11-20T02:07:20;13.80;;;10.93;;
13218;SDS011;6674;49.152;11.918;2022-11-20T02:09:48;12.33;;;10.63;;
13218;SDS011;6674;49.152;11.918;2022-11-20T02:12:15;11.60;;;9.70;;
13218;SDS011;6674;49.152;11.918;2022-11-20T02:14:57;13.03;;;10.73;;
13218;SDS011;6674;49.152;11.918;2022-11-20T02:17:24;16.57;;;12.63;;
13218;SDS011;6674;49.152;11.918;2022-11-20T02:19:51;13.47;;;10.63;;
13218;SDS011;6674;49.152;11.918;2022-11-20T02:22:19;15.87;;;12.10;;
13218;SDS011;6674;49.152;11.918;2022-11-20T02:24:51;19.27;;;14.60;;
13218;SDS011;6674;49.152;11.918;2022-11-20T02:27:18;16.60;;;13.57;;
13218;SDS011;6674;49.152;11.918;2022-11-20T02:29:46;17.57;;;13.53;;
13218;SDS011;6674;49.152;11.918;2022-11-20T02:32:18;18.80;;;13.90;;
13218;SDS011;6674;49.152;11.918;2022-11-20T02:34:45;17.00;;;13.47;;
13218;SDS011;6674;49.152;11.918;2022-11-20T02:37:12;16.37;;;12.70;;
13218;SDS011;6674;49.152;11.918;2022-11-20T02:39:40;18.57;;;14.17;;
13218;SDS011;6674;49.152;11.918;2022-11-20T02:42:09;16.43;;;14.00;;
13218;SDS011;6674;49.152;11.918;2022-11-20T02:44:35;19.80;;;15.00;;
13218;SDS011;6674;49.152;11.918;2022-11-20T02:47:02;20.13;;;15.30;;
13218;SDS011;6674;49.152;11.918;2022-11-20T02:49:29;20.40;;;14.93;;
13218;SDS011;6674;49.152;11.918;2022-11-20T02:51:56;17.27;;;13.10;;
13218;SDS011;6674;49.152;11.918;2022-11-20T02:54:22;16.23;;;13.63;;
13218;SDS011;6674;49.152;11.918;2022-11-20T02:56:49;15.27;;;12.63;;
13218;SDS011;6674;49.152;11.918;2022-11-20T02:59:17;15.73;;;12.17;;
13218;SDS011;6674;49.152;11.918;2022-11-20T03:01:43;15.80;;;12.07;;
13218;SDS011;6674;49.152;11.918;2022-11-20T03:04:10;13.63;;;11.10;;
13218;SDS011;6674;49.152;11.918;2022-11-20T03:06:37;14.40;;;11.90;;
13218;SDS011;6674;49.152;11.918;2022-11-20T03:09:04;15.27;;;12.00;;
13218;SDS011;6674;49.152;11.918;2022-11-20T03:11:30;13.57;;;11.20;;
13218;SDS011;6674;49.152;11.918;2022-11-20T03:14:01;13.57;;;10.47;;
13218;SDS011;6674;49.152;11.918;2022-11-20T03:16:30;14.30;;;11.33;;
13218;SDS011;6674;49.152;11.918;2022-11-20T03:18:57;14.73;;;11.83;;
13218;SDS011;6674;49.152;11.918;2022-11-20T03:21:24;12.23;;;10.13;;
13218;SDS011;6674;49.152;11.918;2022-11-20T03:23:52;12.80;;;10.47;;
13218;SDS011;6674;49.152;11.918;2022-11-20T03:26:19;13.63;;;10.83;;
13218;SDS011;6674;49.152;11.918;2022-11-20T03:28:48;14.20;;;12.03;;
13218;SDS011;6674;49.152;11.918;2022-11-20T03:31:16;13.47;;;11.30;;
13218;SDS011;6674;49.152;11.918;2022-11-20T03:33:46;15.27;;;12.13;;
13218;SDS011;6674;49.152;11.918;2022-11-20T03:36:13;15.43;;;13.27;;
13218;SDS011;6674;49.152;11.918;2022-11-20T03:38:42;17.53;;;13.07;;
13218;SDS011;6674;49.152;11.918;2022-11-20T03:41:10;15.67;;;12.93;;
13218;SDS011;6674;49.152;11.918;2022-11-20T03:43:38;14.47;;;11.37;;
13218;SDS011;6674;49.152;11.918;2022-11-20T03:46:06;14.70;;;11.53;;
13218;SDS011;6674;49.152;11.918;2022-11-20T03:48:33;14.47;;;11.60;;
13218;SDS011;6674;49.152;11.918;2022-11-20T03:51:09;13.20;;;10.83;;
13218;SDS011;6674;49.152;11.918;2022-11-20T03:53:37;14.03;;;11.50;;
13218;SDS011;6674;49.152;11.918;2022-11-20T03:56:04;14.70;;;11.87;;
13218;SDS011;6674;49.152;11.918;2022-11-20T03:58:32;15.07;;;12.07;;
13218;SDS011;6674;49.152;11.918;2022-11-20T04:01:03;16.47;;;13.53;;
13218;SDS011;6674;49.152;11.918;2022-11-20T04:03:30;17.50;;;13.83;;
13218;SDS011;6674;49.152;11.918;2022-11-20T04:06:00;17.50;;;13.40;;
13218;SDS011;6674;49.152;11.918;2022-11-20T04:08:29;18.60;;;14.53;;
13218;SDS011;6674;49.152;11.918;2022-11-20T04:10:57;17.60;;;13.53;;
13218;SDS011;6674;49.152;11.918;2022-11-20T04:13:34;17.87;;;13.73;;
13218;SDS011;6674;49.152;11.918;2022-11-20T04:16:01;18.10;;;13.70;;
13218;SDS011;6674;49.152;11.918;2022-11-20T04:18:27;19.83;;;14.90;;
13218;SDS011;6674;49.152;11.918;2022-11-20T04:20:55;18.40;;;14.20;;
13218;SDS011;6674;49.152;11.918;2022-11-20T04:23:23;22.60;;;16.50;;
13218;SDS011;6674;49.152;11.918;2022-11-20T04:25:51;21.27;;;16.37;;
13218;SDS011;6674;49.152;11.918;2022-11-20T04:28:17;18.77;;;14.10;;
13218;SDS011;6674;49.152;11.918;2022-11-20T04:30:45;19.77;;;15.00;;
13218;SDS011;6674;49.152;11.918;2022-11-20T04:33:13;20.77;;;15.67;;
13218;SDS011;6674;49.152;11.918;2022-11-20T04:35:39;17.57;;;13.60;;
13218;SDS011;6674;49.152;11.918;2022-11-20T04:38:06;17.57;;;13.40;;
13218;SDS011;6674;49.152;11.918;2022-11-20T04:40:32;18.23;;;13.83;;
13218;SDS011;6674;49.152;11.918;2022-11-20T04:43:00;17.83;;;13.53;;
13218;SDS011;6674;49.152;11.918;2022-11-20T04:45:27;15.43;;;11.93;;
13218;SDS011;6674;49.152;11.918;2022-11-20T04:47:54;15.30;;;11.77;;
13218;SDS011;6674;49.152;11.918;2022-11-20T04:50:20;18.27;;;13.83;;
13218;SDS011;6674;49.152;11.918;2022-11-20T04:52:47;18.47;;;14.20;;
13218;SDS011;6674;49.152;11.918;2022-11-20T04:55:13;17.77;;;13.80;;
13218;SDS011;6674;49.152;11.918;2022-11-20T04:57:40;17.70;;;14.30;;
13218;SDS011;6674;49.152;11.918;2022-11-20T05:00:09;18.37;;;14.83;;
13218;SDS011;6674;49.152;11.918;2022-11-20T05:02:36;14.87;;;12.13;;
13218;SDS011;6674;49.152;11.918;2022-11-20T05:05:03;18.30;;;14.53;;
13218;SDS011;6674;49.152;11.918;2022-11-20T05:07:30;15.30;;;12.07;;
13218;SDS011;6674;49.152;11.918;2022-11-20T05:09:57;17.87;;;13.10;;
13218;SDS011;6674;49.152;11.918;2022-11-20T05:12:23;16.20;;;13.10;;
13218;SDS011;6674;49.152;11.918;2022-11-20T05:14:50;16.67;;;13.13;;
13218;SDS011;6674;49.152;11.918;2022-11-20T05:17:18;13.87;;;11.20;;
13218;SDS011;6674;49.152;11.918;2022-11-20T05:19:44;14.60;;;11.50;;
13218;SDS011;6674;49.152;11.918;2022-11-20T05:22:11;14.17;;;10.87;;
13218;SDS011;6674;49.152;11.918;2022-11-20T05:24:39;11.00;;;9.33;;
13218;SDS011;6674;49.152;11.918;2022-11-20T05:27:06;13.63;;;10.80;;
13218;SDS011;6674;49.152;11.918;2022-11-20T05:29:32;12.83;;;10.47;;
13218;SDS011;6674;49.152;11.918;2022-11-20T05:31:59;14.23;;;11.40;;
13218;SDS011;6674;49.152;11.918;2022-11-20T05:34:27;12.43;;;10.33;;
13218;SDS011;6674;49.152;11.918;2022-11-20T05:36:54;11.97;;;10.03;;
13218;SDS011;6674;49.152;11.918;2022-11-20T05:39:20;14.30;;;11.47;;
13218;SDS011;6674;49.152;11.918;2022-11-20T05:41:47;13.23;;;11.03;;
13218;SDS011;6674;49.152;11.918;2022-11-20T05:44:34;12.57;;;10.37;;
13218;SDS011;6674;49.152;11.918;2022-11-20T05:47:01;12.10;;;10.27;;
13218;SDS011;6674;49.152;11.918;2022-11-20T05:49:29;15.53;;;11.90;;
13218;SDS011;6674;49.152;11.918;2022-11-20T05:51:56;13.77;;;11.70;;
13218;SDS011;6674;49.152;11.918;2022-11-20T05:54:23;12.83;;;11.03;;
13218;SDS011;6674;49.152;11.918;2022-11-20T05:56:49;13.13;;;11.07;;
13218;SDS011;6674;49.152;11.918;2022-11-20T05:59:16;14.80;;;11.50;;
13218;SDS011;6674;49.152;11.918;2022-11-20T06:01:43;13.37;;;11.07;;
13218;SDS011;6674;49.152;11.918;2022-11-20T06:04:09;12.20;;;10.37;;
13218;SDS011;6674;49.152;11.918;2022-11-20T06:06:37;12.80;;;10.73;;
13218;SDS011;6674;49.152;11.918;2022-11-20T06:09:04;10.47;;;9.37;;
13218;SDS011;6674;49.152;11.918;2022-11-20T06:11:31;10.13;;;8.33;;
13218;SDS011;6674;49.152;11.918;2022-11-20T06:13:57;10.00;;;8.77;;
13218;SDS011;6674;49.152;11.918;2022-11-20T06:16:24;9.37;;;8.37;;
13218;SDS011;6674;49.152;11.918;2022-11-20T06:18:50;10.93;;;8.97;;
13218;SDS011;6674;49.152;11.918;2022-11-20T06:21:18;12.53;;;10.20;;
13218;SDS011;6674;49.152;11.918;2022-11-20T06:23:47;11.23;;;9.17;;
13218;SDS011;6674;49.152;11.918;2022-11-20T06:26:15;10.07;;;8.80;;
13218;SDS011;6674;49.152;11.918;2022-11-20T06:28:43;11.13;;;9.27;;
13218;SDS011;6674;49.152;11.918;2022-11-20T06:31:10;12.17;;;10.03;;
13218;SDS011;6674;49.152;11.918;2022-11-20T06:33:38;12.20;;;10.63;;
13218;SDS011;6674;49.152;11.918;2022-11-20T06:36:05;11.83;;;9.63;;
13218;SDS011;6674;49.152;11.918;2022-11-20T06:38:32;11.17;;;9.23;;
13218;SDS011;6674;49.152;11.918;2022-11-20T06:41:00;10.43;;;9.00;;
13218;SDS011;6674;49.152;11.918;2022-11-20T06:43:28;17.73;;;10.17;;
13218;SDS011;6674;49.152;11.918;2022-11-20T06:45:55;12.90;;;9.97;;
13218;SDS011;6674;49.152;11.918;2022-11-20T06:48:22;11.50;;;9.87;;
13218;SDS011;6674;49.152;11.918;2022-11-20T06:50:50;16.63;;;10.13;;
13218;SDS011;6674;49.152;11.918;2022-11-20T06:53:17;14.87;;;10.00;;
13218;SDS011;6674;49.152;11.918;2022-11-20T06:55:44;11.10;;;9.13;;
13218;SDS011;6674;49.152;11.918;2022-11-20T06:58:13;13.50;;;10.27;;
13218;SDS011;6674;49.152;11.918;2022-11-20T07:00:40;13.90;;;9.97;;
13218;SDS011;6674;49.152;11.918;2022-11-20T07:03:08;11.30;;;10.10;;
13218;SDS011;6674;49.152;11.918;2022-11-20T07:05:36;10.03;;;8.63;;
13218;SDS011;6674;49.152;11.918;2022-11-20T07:08:03;9.83;;;8.30;;
13218;SDS011;6674;49.152;11.918;2022-11-20T07:10:31;8.53;;;7.40;;
13218;SDS011;6674;49.152;11.918;2022-11-20T07:12:58;8.53;;;7.40;;
13218;SDS011;6674;49.152;11.918;2022-11-20T07:15:26;11.03;;;9.00;;
13218;SDS011;6674;49.152;11.918;2022-11-20T07:17:52;15.27;;;12.90;;
13218;SDS011;6674;49.152;11.918;2022-11-20T07:20:19;14.57;;;11.83;;
13218;SDS011;6674;49.152;11.918;2022-11-20T07:22:46;10.87;;;9.03;;
13218;SDS011;6674;49.152;11.918;2022-11-20T07:25:12;19.80;;;16.27;;
13218;SDS011;6674;49.152;11.918;2022-11-20T07:27:39;29.23;;;21.87;;
13218;SDS011;6674;49.152;11.918;2022-11-20T07:30:06;13.03;;;11.27;;
13218;SDS011;6674;49.152;11.918;2022-11-20T07:32:35;10.20;;;8.90;;
13218;SDS011;6674;49.152;11.918;2022-11-20T07:35:02;11.63;;;9.27;;
13218;SDS011;6674;49.152;11.918;2022-11-20T07:37:28;9.90;;;8.77;;
13218;SDS011;6674;49.152;11.918;2022-11-20T07:39:55;15.83;;;9.73;;
13218;SDS011;6674;49.152;11.918;2022-11-20T07:42:22;10.17;;;8.77;;
13218;SDS011;6674;49.152;11.918;2022-11-20T07:44:48;10.20;;;8.47;;
13218;SDS011;6674;49.152;11.918;2022-11-20T07:47:16;8.03;;;7.23;;
13218;SDS011;6674;49.152;11.918;2022-11-20T07:49:44;8.67;;;7.23;;
13218;SDS011;6674;49.152;11.918;2022-11-20T07:52:11;7.47;;;6.53;;
13218;SDS011;6674;49.152;11.918;2022-11-20T07:54:37;6.80;;;6.10;;
13218;SDS011;6674;49.152;11.918;2022-11-20T07:57:04;7.63;;;6.50;;
13218;SDS011;6674;49.152;11.918;2022-11-20T07:59:31;9.27;;;7.43;;
13218;SDS011;6674;49.152;11.918;2022-11-20T08:01:58;14.13;;;12.63;;
13218;SDS011;6674;49.152;11.918;2022-11-20T08:04:25;10.60;;;9.50;;
13218;SDS011;6674;49.152;11.918;2022-11-20T08:06:53;10.53;;;9.23;;
13218;SDS011;6674;49.152;11.918;2022-11-20T08:09:19;7.73;;;6.93;;
13218;SDS011;6674;49.152;11.918;2022-11-20T08:11:46;9.77;;;8.77;;
13218;SDS011;6674;49.152;11.918;2022-11-20T08:14:30;9.33;;;8.33;;
13218;SDS011;6674;49.152;11.918;2022-11-20T08:16:57;10.17;;;8.50;;
13218;SDS011;6674;49.152;11.918;2022-11-20T08:19:24;8.83;;;7.60;;
13218;SDS011;6674;49.152;11.918;2022-11-20T08:21:51;9.03;;;7.83;;
13218;SDS011;6674;49.152;11.918;2022-11-20T08:24:20;8.33;;;7.43;;
13218;SDS011;6674;49.152;11.918;2022-11-20T08:26:47;9.93;;;8.30;;
13218;SDS011;6674;49.152;11.918;2022-11-20T08:29:13;10.10;;;8.70;;
13218;SDS011;6674;49.152;11.918;2022-11-20T08:31:41;10.07;;;8.67;;
13218;SDS011;6674;49.152;11.918;2022-11-20T08:34:08;15.33;;;9.60;;
13218;SDS011;6674;49.152;11.918;2022-11-20T08:36:34;29.30;;;10.00;;
13218;SDS011;6674;49.152;11.918;2022-11-20T08:39:03;15.60;;;8.60;;
13218;SDS011;6674;49.152;11.918;2022-11-20T08:41:30;10.27;;;8.57;;
13218;SDS011;6674;49.152;11.918;2022-11-20T08:43:58;8.13;;;7.33;;
13218;SDS011;6674;49.152;11.918;2022-11-20T08:46:27;10.07;;;8.10;;
13218;SDS011;6674;49.152;11.918;2022-11-20T08:48:59;8.33;;;7.30;;
13218;SDS011;6674;49.152;11.918;2022-11-20T08:51:26;9.43;;;8.20;;
13218;SDS011;6674;49.152;11.918;2022-11-20T08:53:52;7.60;;;6.57;;
13218;SDS011;6674;49.152;11.918;2022-11-20T08:56:20;9.93;;;8.20;;
13218;SDS011;6674;49.152;11.918;2022-11-20T08:58:47;8.77;;;7.87;;
13218;SDS011;6674;49.152;11.918;2022-11-20T09:01:15;8.60;;;7.20;;
13218;SDS011;6674;49.152;11.918;2022-11-20T09:03:42;9.93;;;8.40;;
13218;SDS011;6674;49.152;11.918;2022-11-20T09:06:08;10.07;;;8.40;;
13218;SDS011;6674;49.152;11.918;2022-11-20T09:08:35;9.27;;;8.17;;
13218;SDS011;6674;49.152;11.918;2022-11-20T09:11:02;9.50;;;8.50;;
13218;SDS011;6674;49.152;11.918;2022-11-20T09:13:31;8.77;;;7.87;;
13218;SDS011;6674;49.152;11.918;2022-11-20T09:15:59;9.70;;;8.70;;
13218;SDS011;6674;49.152;11.918;2022-11-20T09:18:27;9.17;;;7.77;;
13218;SDS011;6674;49.152;11.918;2022-11-20T09:20:57;9.20;;;8.20;;
13218;SDS011;6674;49.152;11.918;2022-11-20T09:23:24;8.90;;;7.40;;
13218;SDS011;6674;49.152;11.918;2022-11-20T09:25:51;11.30;;;9.13;;
13218;SDS011;6674;49.152;11.918;2022-11-20T09:28:20;10.07;;;8.97;;
13218;SDS011;6674;49.152;11.918;2022-11-20T09:30:48;10.33;;;8.37;;
13218;SDS011;6674;49.152;11.918;2022-11-20T09:33:15;10.00;;;8.03;;
13218;SDS011;6674;49.152;11.918;2022-11-20T09:35:42;9.67;;;8.67;;
13218;SDS011;6674;49.152;11.918;2022-11-20T09:38:09;10.40;;;8.07;;
13218;SDS011;6674;49.152;11.918;2022-11-20T09:40:39;10.17;;;8.83;;
13218;SDS011;6674;49.152;11.918;2022-11-20T09:43:12;9.83;;;8.80;;
13218;SDS011;6674;49.152;11.918;2022-11-20T09:48:37;9.63;;;7.97;;
13218;SDS011;6674;49.152;11.918;2022-11-20T09:51:16;11.50;;;9.13;;
13218;SDS011;6674;49.152;11.918;2022-11-20T09:53:57;10.37;;;8.60;;
13218;SDS011;6674;49.152;11.918;2022-11-20T09:56:33;10.77;;;8.97;;
13218;SDS011;6674;49.152;11.918;2022-11-20T09:59:04;10.63;;;8.83;;
13218;SDS011;6674;49.152;11.918;2022-11-20T10:01:35;10.37;;;8.77;;
13218;SDS011;6674;49.152;11.918;2022-11-20T10:04:06;8.47;;;7.57;;
13218;SDS011;6674;49.152;11.918;2022-11-20T10:06:39;8.27;;;7.47;;
13218;SDS011;6674;49.152;11.918;2022-11-20T10:09:14;7.80;;;6.93;;
13218;SDS011;6674;49.152;11.918;2022-11-20T10:11:48;8.10;;;7.30;;
13218;SDS011;6674;49.152;11.918;2022-11-20T10:14:25;9.07;;;7.63;;
13218;SDS011;6674;49.152;11.918;2022-11-20T10:17:01;7.97;;;7.23;;
13218;SDS011;6674;49.152;11.918;2022-11-20T10:19:42;7.90;;;7.07;;
13218;SDS011;6674;49.152;11.918;2022-11-20T10:22:16;8.27;;;7.13;;
13218;SDS011;6674;49.152;11.918;2022-11-20T10:24:55;8.03;;;7.23;;
13218;SDS011;6674;49.152;11.918;2022-11-20T10:30:25;9.87;;;7.40;;
13218;SDS011;6674;49.152;11.918;2022-11-20T10:32:54;8.17;;;7.10;;
13218;SDS011;6674;49.152;11.918;2022-11-20T10:35:26;9.53;;;8.53;;
13218;SDS011;6674;49.152;11.918;2022-11-20T10:37:58;9.47;;;8.57;;
13218;SDS011;6674;49.152;11.918;2022-11-20T10:40:30;9.23;;;8.07;;
13218;SDS011;6674;49.152;11.918;2022-11-20T10:43:01;9.43;;;8.53;;
13218;SDS011;6674;49.152;11.918;2022-11-20T10:48:22;9.20;;;8.30;;
13218;SDS011;6674;49.152;11.918;2022-11-20T10:50:55;8.83;;;7.10;;
13218;SDS011;6674;49.152;11.918;2022-11-20T10:53:37;8.73;;;7.77;;
13218;SDS011;6674;49.152;11.918;2022-11-20T10:56:21;9.73;;;8.47;;
13218;SDS011;6674;49.152;11.918;2022-11-20T10:59:00;9.37;;;7.67;;
13218;SDS011;6674;49.152;11.918;2022-11-20T11:01:39;9.07;;;8.17;;
13218;SDS011;6674;49.152;11.918;2022-11-20T11:04:13;9.07;;;8.17;;
13218;SDS011;6674;49.152;11.918;2022-11-20T11:06:50;10.00;;;8.33;;
13218;SDS011;6674;49.152;11.918;2022-11-20T11:09:21;8.37;;;7.47;;
13218;SDS011;6674;49.152;11.918;2022-11-20T11:11:56;8.97;;;7.83;;
13218;SDS011;6674;49.152;11.918;2022-11-20T11:14:23;9.83;;;7.80;;
13218;SDS011;6674;49.152;11.918;2022-11-20T11:16:51;8.50;;;7.60;;
13218;SDS011;6674;49.152;11.918;2022-11-20T11:19:20;8.57;;;7.77;;
13218;SDS011;6674;49.152;11.918;2022-11-20T11:21:47;7.97;;;7.17;;
13218;SDS011;6674;49.152;11.918;2022-11-20T11:24:19;8.27;;;7.37;;
13218;SDS011;6674;49.152;11.918;2022-11-20T11:26:51;8.60;;;7.30;;
13218;SDS011;6674;49.152;11.918;2022-11-20T11:29:21;7.63;;;6.77;;
13218;SDS011;6674;49.152;11.918;2022-11-20T11:31:47;7.93;;;7.13;;
13218;SDS011;6674;49.152;11.918;2022-11-20T11:34:15;7.00;;;6.30;;
13218;SDS011;6674;49.152;11.918;2022-11-20T11:36:49;7.77;;;7.03;;
13218;SDS011;6674;49.152;11.918;2022-11-20T11:39:22;7.80;;;7.00;;
13218;SDS011;6674;49.152;11.918;2022-11-20T11:41:50;9.03;;;8.13;;
13218;SDS011;6674;49.152;11.918;2022-11-20T11:44:19;9.43;;;8.43;;
13218;SDS011;6674;49.152;11.918;2022-11-20T11:47:05;8.23;;;7.43;;
13218;SDS011;6674;49.152;11.918;2022-11-20T11:49:37;7.73;;;7.03;;
13218;SDS011;6674;49.152;11.918;2022-11-20T11:52:08;7.33;;;6.63;;
13218;SDS011;6674;49.152;11.918;2022-11-20T11:54:41;8.57;;;7.77;;
13218;SDS011;6674;49.152;11.918;2022-11-20T11:57:13;9.13;;;7.70;;
13218;SDS011;6674;49.152;11.918;2022-11-20T11:59:50;8.10;;;7.03;;
13218;SDS011;6674;49.152;11.918;2022-11-20T12:02:25;8.27;;;7.47;;
13218;SDS011;6674;49.152;11.918;2022-11-20T12:04:59;8.27;;;7.17;;
13218;SDS011;6674;49.152;11.918;2022-11-20T12:07:37;8.23;;;6.90;;
13218;SDS011;6674;49.152;11.918;2022-11-20T12:10:12;8.10;;;7.30;;
13218;SDS011;6674;49.152;11.918;2022-11-20T12:12:43;8.77;;;7.83;;
13218;SDS011;6674;49.152;11.918;2022-11-20T12:15:15;8.20;;;7.40;;
13218;SDS011;6674;49.152;11.918;2022-11-20T12:17:46;7.47;;;6.77;;
13218;SDS011;6674;49.152;11.918;2022-11-20T12:20:13;7.50;;;6.67;;
13218;SDS011;6674;49.152;11.918;2022-11-20T12:22:43;5.90;;;5.40;;
13218;SDS011;6674;49.152;11.918;2022-11-20T12:25:19;7.63;;;6.83;;
13218;SDS011;6674;49.152;11.918;2022-11-20T12:27:55;6.83;;;6.13;;
13218;SDS011;6674;49.152;11.918;2022-11-20T12:30:41;6.77;;;5.30;;
13218;SDS011;6674;49.152;11.918;2022-11-20T12:33:24;6.57;;;5.90;;
13218;SDS011;6674;49.152;11.918;2022-11-20T12:36:08;6.63;;;6.03;;
13218;SDS011;6674;49.152;11.918;2022-11-20T12:38:48;6.30;;;5.70;;
13218;SDS011;6674;49.152;11.918;2022-11-20T12:41:26;6.17;;;5.60;;
13218;SDS011;6674;49.152;11.918;2022-11-20T12:44:22;6.43;;;5.83;;
13218;SDS011;6674;49.152;11.918;2022-11-20T12:47:20;5.97;;;5.07;;
13218;SDS011;6674;49.152;11.918;2022-11-20T12:49:56;6.30;;;5.70;;
13218;SDS011;6674;49.152;11.918;2022-11-20T12:52:31;5.50;;;5.00;;
13218;SDS011;6674;49.152;11.918;2022-11-20T12:55:12;5.40;;;4.90;;
13218;SDS011;6674;49.152;11.918;2022-11-20T12:57:50;4.90;;;4.50;;
13218;SDS011;6674;49.152;11.918;2022-11-20T13:00:21;5.63;;;5.00;;
13218;SDS011;6674;49.152;11.918;2022-11-20T13:05:47;5.03;;;4.63;;
13218;SDS011;6674;49.152;11.918;2022-11-20T13:08:22;4.70;;;4.30;;
13218;SDS011;6674;49.152;11.918;2022-11-20T13:10:54;4.50;;;4.10;;
13218;SDS011;6674;49.152;11.918;2022-11-20T13:13:29;4.40;;;3.53;;
13218;SDS011;6674;49.152;11.918;2022-11-20T13:16:02;3.87;;;3.57;;
13218;SDS011;6674;49.152;11.918;2022-11-20T13:18:34;4.27;;;3.27;;
13218;SDS011;6674;49.152;11.918;2022-11-20T13:21:13;1.90;;;1.80;;
13218;SDS011;6674;49.152;11.918;2022-11-20T13:23:41;1.23;;;1.10;;
13218;SDS011;6674;49.152;11.918;2022-11-20T13:26:15;1.30;;;1.20;;
13218;SDS011;6674;49.152;11.918;2022-11-20T13:28:44;1.40;;;1.30;;
13218;SDS011;6674;49.152;11.918;2022-11-20T13:31:23;2.87;;;1.17;;
13218;SDS011;6674;49.152;11.918;2022-11-20T13:33:55;1.53;;;1.10;;
13218;SDS011;6674;49.152;11.918;2022-11-20T13:36:23;1.10;;;0.90;;
13218;SDS011;6674;49.152;11.918;2022-11-20T13:38:52;1.70;;;0.97;;
13218;SDS011;6674;49.152;11.918;2022-11-20T13:41:25;1.17;;;1.07;;
13218;SDS011;6674;49.152;11.918;2022-11-20T13:44:04;1.10;;;1.00;;
13218;SDS011;6674;49.152;11.918;2022-11-20T13:46:37;1.30;;;1.20;;
13218;SDS011;6674;49.152;11.918;2022-11-20T13:49:07;0.93;;;0.87;;
13218;SDS011;6674;49.152;11.918;2022-11-20T13:51:37;0.87;;;0.87;;
13218;SDS011;6674;49.152;11.918;2022-11-20T13:54:22;1.13;;;1.10;;
13218;SDS011;6674;49.152;11.918;2022-11-20T13:57:16;1.10;;;1.00;;
13218;SDS011;6674;49.152;11.918;2022-11-20T14:00:13;1.63;;;1.00;;
13218;SDS011;6674;49.152;11.918;2022-11-20T14:02:41;1.73;;;1.10;;
13218;SDS011;6674;49.152;11.918;2022-11-20T14:05:15;1.03;;;0.93;;
13218;SDS011;6674;49.152;11.918;2022-11-20T14:07:46;0.70;;;0.70;;
13218;SDS011;6674;49.152;11.918;2022-11-20T14:10:19;0.87;;;0.87;;
13218;SDS011;6674;49.152;11.918;2022-11-20T14:12:48;0.70;;;0.70;;
13218;SDS011;6674;49.152;11.918;2022-11-20T14:15:23;0.70;;;0.70;;
13218;SDS011;6674;49.152;11.918;2022-11-20T14:17:53;1.20;;;1.10;;
13218;SDS011;6674;49.152;11.918;2022-11-20T14:20:19;1.43;;;1.23;;
13218;SDS011;6674;49.152;11.918;2022-11-20T14:22:51;1.47;;;0.90;;
13218;SDS011;6674;49.152;11.918;2022-11-20T14:25:19;1.17;;;1.07;;
13218;SDS011;6674;49.152;11.918;2022-11-20T14:27:52;1.30;;;1.20;;
13218;SDS011;6674;49.152;11.918;2022-11-20T14:30:20;1.07;;;0.90;;
13218;SDS011;6674;49.152;11.918;2022-11-20T14:32:49;1.30;;;1.20;;
13218;SDS011;6674;49.152;11.918;2022-11-20T14:35:18;2.10;;;1.10;;
13218;SDS011;6674;49.152;11.918;2022-11-20T14:37:49;1.63;;;1.33;;
13218;SDS011;6674;49.152;11.918;2022-11-20T14:40:27;0.80;;;0.80;;
13218;SDS011;6674;49.152;11.918;2022-11-20T14:42:57;1.17;;;1.07;;
13218;SDS011;6674;49.152;11.918;2022-11-20T14:45:25;1.20;;;1.20;;
13218;SDS011;6674;49.152;11.918;2022-11-20T14:47:52;1.33;;;1.23;;
13218;SDS011;6674;49.152;11.918;2022-11-20T14:50:22;1.30;;;1.20;;
13218;SDS011;6674;49.152;11.918;2022-11-20T14:52:51;8.40;;;7.03;;
13218;SDS011;6674;49.152;11.918;2022-11-20T14:55:26;3.90;;;2.67;;
13218;SDS011;6674;49.152;11.918;2022-11-20T14:57:54;5.00;;;4.50;;
13218;SDS011;6674;49.152;11.918;2022-11-20T15:00:23;5.20;;;4.70;;